sensor_id;sensor_type;location;lat;lon;timestamp;pressure;altitude;pressure_sealevel;temperature;humidity
9289;BME280;4683;50.864;12.086;2023-09-19T00:01:57;98315.03;;;18.88;100.00
9289;BME280;4683;50.864;12.086;2023-09-19T00:04:35;98323.91;;;18.93;100.00
9289;BME280;4683;50.864;12.086;2023-09-19T00:07:16;98330.06;;;18.94;100.00
9289;BME280;4683;50.864;12.086;2023-09-19T00:09:48;98340.47;;;18.90;100.00
9289;BME280;4683;50.864;12.086;2023-09-19T00:12:21;98344.59;;;18.76;100.00
9289;BME280;4683;50.864;12.086;2023-09-19T00:14:52;98339.19;;;18.71;100.00
9289;BME280;4683;50.864;12.086;2023-09-19T00:17:27;98334.09;;;18.69;100.00
9289;BME280;4683;50.864;12.086;2023-09-19T00:20:05;98333.31;;;18.69;100.00
9289;BME280;4683;50.864;12.086;2023-09-19T00:22:40;98329.06;;;18.73;100.00
9289;BME280;4683;50.864;12.086;2023-09-19T00:25:14;98323.72;;;18.73;100.00
9289;BME280;4683;50.864;12.086;2023-09-19T00:27:49;98323.22;;;18.76;100.00
9289;BME280;4683;50.864;12.086;2023-09-19T00:30:24;98324.25;;;18.75;100.00
9289;BME280;4683;50.864;12.086;2023-09-19T00:32:59;98334.91;;;18.70;100.00
9289;BME280;4683;50.864;12.086;2023-09-19T00:35:33;98330.38;;;18.70;100.00
9289;BME280;4683;50.864;12.086;2023-09-19T00:38:08;98342.16;;;18.74;100.00
9289;BME280;4683;50.864;12.086;2023-09-19T00:40:57;98346.56;;;18.64;100.00
9289;BME280;4683;50.864;12.086;2023-09-19T00:43:31;98343.63;;;18.65;100.00
9289;BME280;4683;50.864;12.086;2023-09-19T00:46:08;98356.50;;;18.68;100.00
9289;BME280;4683;50.864;12.086;2023-09-19T00:48:42;98360.84;;;18.52;100.00
9289;BME280;4683;50.864;12.086;2023-09-19T00:51:16;98355.50;;;18.52;100.00
9289;BME280;4683;50.864;12.086;2023-09-19T00:53:53;98344.22;;;18.45;100.00
9289;BME280;4683;50.864;12.086;2023-09-19T00:56:31;98352.19;;;18.40;100.00
9289;BME280;4683;50.864;12.086;2023-09-19T00:59:05;98357.16;;;18.54;100.00
9289;BME280;4683;50.864;12.086;2023-09-19T01:01:53;98364.78;;;18.45;100.00
9289;BME280;4683;50.864;12.086;2023-09-19T01:04:28;98372.44;;;18.36;100.00
9289;BME280;4683;50.864;12.086;2023-09-19T01:07:01;98373.16;;;18.32;100.00
9289;BME280;4683;50.864;12.086;2023-09-19T01:09:37;98372.75;;;18.40;100.00
9289;BME280;4683;50.864;12.086;2023-09-19T01:12:11;98378.31;;;18.38;100.00
9289;BME280;4683;50.864;12.086;2023-09-19T01:14:59;98389.75;;;18.34;100.00
9289;BME280;4683;50.864;12.086;2023-09-19T01:17:46;98379.31;;;18.32;100.00
9289;BME280;4683;50.864;12.086;2023-09-19T01:20:33;98390.53;;;18.34;100.00
9289;BME280;4683;50.864;12.086;2023-09-19T01:23:17;98395.81;;;18.29;100.00
9289;BME280;4683;50.864;12.086;2023-09-19T01:26:10;98383.47;;;18.23;100.00
9289;BME280;4683;50.864;12.086;2023-09-19T01:29:01;98391.81;;;18.27;100.00
9289;BME280;4683;50.864;12.086;2023-09-19T01:31:48;98393.16;;;18.29;100.00
9289;BME280;4683;50.864;12.086;2023-09-19T01:34:45;98395.22;;;18.22;100.00
9289;BME280;4683;50.864;12.086;2023-09-19T01:37:21;98398.09;;;18.20;100.00
9289;BME280;4683;50.864;12.086;2023-09-19T01:40:00;98395.28;;;18.27;100.00
9289;BME280;4683;50.864;12.086;2023-09-19T01:42:52;98390.91;;;18.21;100.00
9289;BME280;4683;50.864;12.086;2023-09-19T01:45:35;98401.28;;;18.17;100.00
9289;BME280;4683;50.864;12.086;2023-09-19T01:48:24;98400.50;;;18.17;100.00
9289;BME280;4683;50.864;12.086;2023-09-19T01:51:22;98386.56;;;18.15;100.00
9289;BME280;4683;50.864;12.086;2023-09-19T01:54:01;98392.22;;;18.18;100.00
9289;BME280;4683;50.864;12.086;2023-09-19T01:56:42;98409.38;;;18.06;100.00
9289;BME280;4683;50.864;12.086;2023-09-19T01:59:38;98407.78;;;18.05;100.00
9289;BME280;4683;50.864;12.086;2023-09-19T02:02:09;98409.38;;;18.06;100.00
9289;BME280;4683;50.864;12.086;2023-09-19T02:04:45;98405.03;;;17.99;100.00
9289;BME280;4683;50.864;12.086;2023-09-19T02:07:18;98420.53;;;18.03;100.00
9289;BME280;4683;50.864;12.086;2023-09-19T02:09:56;98421.06;;;17.99;100.00
9289;BME280;4683;50.864;12.086;2023-09-19T02:12:41;98418.94;;;18.02;100.00
9289;BME280;4683;50.864;12.086;2023-09-19T02:15:16;98426.94;;;18.02;100.00
9289;BME280;4683;50.864;12.086;2023-09-19T02:17:44;98427.53;;;18.04;100.00
9289;BME280;4683;50.864;12.086;2023-09-19T02:20:14;98427.75;;;18.02;100.00
9289;BME280;4683;50.864;12.086;2023-09-19T02:22:44;98440.34;;;18.07;100.00
9289;BME280;4683;50.864;12.086;2023-09-19T02:25:12;98431.41;;;18.13;100.00
9289;BME280;4683;50.864;12.086;2023-09-19T02:27:46;98438.59;;;18.12;100.00
9289;BME280;4683;50.864;12.086;2023-09-19T02:30:23;98439.88;;;18.10;100.00
9289;BME280;4683;50.864;12.086;2023-09-19T02:33:01;98448.53;;;18.17;100.00
9289;BME280;4683;50.864;12.086;2023-09-19T02:35:38;98451.75;;;18.19;100.00
9289;BME280;4683;50.864;12.086;2023-09-19T02:38:14;98449.63;;;18.21;100.00
9289;BME280;4683;50.864;12.086;2023-09-19T02:40:50;98454.69;;;18.17;100.00
9289;BME280;4683;50.864;12.086;2023-09-19T02:43:19;98458.91;;;18.13;100.00
9289;BME280;4683;50.864;12.086;2023-09-19T02:45:49;98465.03;;;18.14;100.00
9289;BME280;4683;50.864;12.086;2023-09-19T02:49:05;98463.25;;;18.03;100.00
9289;BME280;4683;50.864;12.086;2023-09-19T02:51:46;98462.28;;;18.09;100.00
9289;BME280;4683;50.864;12.086;2023-09-19T02:54:20;98470.31;;;18.09;100.00
9289;BME280;4683;50.864;12.086;2023-09-19T02:56:57;98468.75;;;18.13;100.00
9289;BME280;4683;50.864;12.086;2023-09-19T02:59:48;98462.44;;;18.19;100.00
9289;BME280;4683;50.864;12.086;2023-09-19T03:02:16;98467.59;;;18.25;100.00
9289;BME280;4683;50.864;12.086;2023-09-19T03:04:50;98473.25;;;18.29;100.00
9289;BME280;4683;50.864;12.086;2023-09-19T03:07:29;98474.25;;;18.23;100.00
9289;BME280;4683;50.864;12.086;2023-09-19T03:10:02;98470.53;;;18.24;100.00
9289;BME280;4683;50.864;12.086;2023-09-19T03:12:36;98467.84;;;18.24;100.00
9289;BME280;4683;50.864;12.086;2023-09-19T03:15:08;98465.19;;;18.24;100.00
9289;BME280;4683;50.864;12.086;2023-09-19T03:17:37;98467.72;;;18.14;100.00
9289;BME280;4683;50.864;12.086;2023-09-19T03:20:12;98463.56;;;18.06;100.00
9289;BME280;4683;50.864;12.086;2023-09-19T03:22:48;98470.13;;;17.98;100.00
9289;BME280;4683;50.864;12.086;2023-09-19T03:25:17;98473.94;;;18.03;100.00
9289;BME280;4683;50.864;12.086;2023-09-19T03:28:07;98460.34;;;17.87;100.00
9289;BME280;4683;50.864;12.086;2023-09-19T03:30:36;98471.41;;;17.79;100.00
9289;BME280;4683;50.864;12.086;2023-09-19T03:33:05;98467.47;;;17.82;100.00
9289;BME280;4683;50.864;12.086;2023-09-19T03:35:34;98476.09;;;17.72;100.00
9289;BME280;4683;50.864;12.086;2023-09-19T03:38:05;98468.00;;;17.67;100.00
9289;BME280;4683;50.864;12.086;2023-09-19T03:40:33;98463.22;;;17.69;100.00
9289;BME280;4683;50.864;12.086;2023-09-19T03:43:10;98467.25;;;17.55;100.00
9289;BME280;4683;50.864;12.086;2023-09-19T03:45:38;98467.72;;;17.52;100.00
9289;BME280;4683;50.864;12.086;2023-09-19T03:48:09;98463.44;;;17.50;100.00
9289;BME280;4683;50.864;12.086;2023-09-19T03:50:51;98460.09;;;17.43;100.00
9289;BME280;4683;50.864;12.086;2023-09-19T03:53:41;98464.06;;;17.41;100.00
9289;BME280;4683;50.864;12.086;2023-09-19T03:56:09;98459.63;;;17.46;100.00
9289;BME280;4683;50.864;12.086;2023-09-19T03:58:43;98470.31;;;17.46;100.00
9289;BME280;4683;50.864;12.086;2023-09-19T04:01:11;98456.88;;;17.41;100.00
9289;BME280;4683;50.864;12.086;2023-09-19T04:03:47;98464.41;;;17.44;100.00
9289;BME280;4683;50.864;12.086;2023-09-19T04:06:24;98467.47;;;17.36;100.00
9289;BME280;4683;50.864;12.086;2023-09-19T04:08:55;98455.28;;;17.40;100.00
9289;BME280;4683;50.864;12.086;2023-09-19T04:11:42;98462.34;;;17.35;100.00
9289;BME280;4683;50.864;12.086;2023-09-19T04:14:55;98466.88;;;17.34;100.00
9289;BME280;4683;50.864;12.086;2023-09-19T04:18:22;98472.38;;;17.28;100.00
9289;BME280;4683;50.864;12.086;2023-09-19T04:21:05;98480.28;;;17.39;100.00
9289;BME280;4683;50.864;12.086;2023-09-19T04:23:39;98482.06;;;17.34;100.00
9289;BME280;4683;50.864;12.086;2023-09-19T04:27:24;98497.53;;;17.20;100.00
9289;BME280;4683;50.864;12.086;2023-09-19T04:29:59;98497.50;;;17.32;100.00
9289;BME280;4683;50.864;12.086;2023-09-19T04:32:42;98495.91;;;17.31;100.00
9289;BME280;4683;50.864;12.086;2023-09-19T04:35:38;98499.84;;;17.28;100.00
9289;BME280;4683;50.864;12.086;2023-09-19T04:38:28;98509.25;;;17.47;100.00
9289;BME280;4683;50.864;12.086;2023-09-19T04:40:58;98512.69;;;17.60;100.00
9289;BME280;4683;50.864;12.086;2023-09-19T04:43:30;98519.16;;;17.64;100.00
9289;BME280;4683;50.864;12.086;2023-09-19T04:45:59;98521.03;;;17.63;100.00
9289;BME280;4683;50.864;12.086;2023-09-19T04:48:28;98519.16;;;17.64;100.00
9289;BME280;4683;50.864;12.086;2023-09-19T04:50:57;98521.56;;;17.65;100.00
9289;BME280;4683;50.864;12.086;2023-09-19T04:53:46;98525.63;;;17.68;100.00
9289;BME280;4683;50.864;12.086;2023-09-19T04:56:14;98528.41;;;17.73;100.00
9289;BME280;4683;50.864;12.086;2023-09-19T04:58:44;98530.63;;;17.76;100.00
9289;BME280;4683;50.864;12.086;2023-09-19T05:01:17;98533.28;;;17.76;100.00
9289;BME280;4683;50.864;12.086;2023-09-19T05:03:46;98538.38;;;17.78;100.00
9289;BME280;4683;50.864;12.086;2023-09-19T05:06:24;98542.91;;;17.77;100.00
9289;BME280;4683;50.864;12.086;2023-09-19T05:08:54;98542.31;;;17.75;100.00
9289;BME280;4683;50.864;12.086;2023-09-19T05:11:23;98542.31;;;17.75;100.00
9289;BME280;4683;50.864;12.086;2023-09-19T05:13:59;98544.78;;;17.77;100.00
9289;BME280;4683;50.864;12.086;2023-09-19T05:16:45;98537.91;;;17.81;100.00
9289;BME280;4683;50.864;12.086;2023-09-19T05:19:15;98542.03;;;17.88;100.00
9289;BME280;4683;50.864;12.086;2023-09-19T05:21:44;98544.28;;;17.96;100.00
9289;BME280;4683;50.864;12.086;2023-09-19T05:24:14;98545.69;;;17.99;100.00
9289;BME280;4683;50.864;12.086;2023-09-19T05:26:44;98546.72;;;17.98;100.00
9289;BME280;4683;50.864;12.086;2023-09-19T05:29:18;98554.00;;;17.86;100.00
9289;BME280;4683;50.864;12.086;2023-09-19T05:31:47;98556.72;;;17.74;100.00
9289;BME280;4683;50.864;12.086;2023-09-19T05:34:17;98558.13;;;17.65;100.00
9289;BME280;4683;50.864;12.086;2023-09-19T05:36:50;98546.88;;;17.63;100.00
9289;BME280;4683;50.864;12.086;2023-09-19T05:39:22;98542.13;;;17.65;100.00
9289;BME280;4683;50.864;12.086;2023-09-19T05:42:05;98536.78;;;17.65;100.00
9289;BME280;4683;50.864;12.086;2023-09-19T05:44:38;98532.44;;;17.75;100.00
9289;BME280;4683;50.864;12.086;2023-09-19T05:47:07;98529.31;;;17.79;100.00
9289;BME280;4683;50.864;12.086;2023-09-19T05:49:37;98533.47;;;17.86;100.00
9289;BME280;4683;50.864;12.086;2023-09-19T05:52:06;98535.41;;;17.91;100.00
9289;BME280;4683;50.864;12.086;2023-09-19T05:54:35;98546.06;;;17.91;100.00
9289;BME280;4683;50.864;12.086;2023-09-19T05:57:06;98554.31;;;17.89;100.00
9289;BME280;4683;50.864;12.086;2023-09-19T05:59:46;98554.91;;;17.91;100.00
9289;BME280;4683;50.864;12.086;2023-09-19T06:02:28;98549.16;;;17.99;100.00
9289;BME280;4683;50.864;12.086;2023-09-19T06:05:04;98558.22;;;18.15;100.00
9289;BME280;4683;50.864;12.086;2023-09-19T06:07:40;98568.59;;;18.29;100.00
9289;BME280;4683;50.864;12.086;2023-09-19T06:10:11;98566.00;;;18.34;100.00
9289;BME280;4683;50.864;12.086;2023-09-19T06:12:43;98572.66;;;18.31;100.00
9289;BME280;4683;50.864;12.086;2023-09-19T06:15:17;98573.13;;;18.45;100.00
9289;BME280;4683;50.864;12.086;2023-09-19T06:17:52;98578.13;;;18.58;100.00
9289;BME280;4683;50.864;12.086;2023-09-19T06:20:24;98588.66;;;18.65;100.00
9289;BME280;4683;50.864;12.086;2023-09-19T06:22:58;98600.91;;;18.78;100.00
9289;BME280;4683;50.864;12.086;2023-09-19T06:25:28;98608.78;;;18.89;100.00
9289;BME280;4683;50.864;12.086;2023-09-19T06:27:57;98612.75;;;19.04;100.00
9289;BME280;4683;50.864;12.086;2023-09-19T06:30:27;98623.47;;;19.25;100.00
9289;BME280;4683;50.864;12.086;2023-09-19T06:32:56;98622.06;;;19.40;100.00
9289;BME280;4683;50.864;12.086;2023-09-19T06:35:28;98630.59;;;19.59;100.00
9289;BME280;4683;50.864;12.086;2023-09-19T06:38:03;98630.94;;;19.89;100.00
9289;BME280;4683;50.864;12.086;2023-09-19T06:40:37;98642.94;;;20.09;100.00
9289;BME280;4683;50.864;12.086;2023-09-19T06:43:06;98644.78;;;20.35;100.00
9289;BME280;4683;50.864;12.086;2023-09-19T06:45:38;98648.47;;;20.56;100.00
9289;BME280;4683;50.864;12.086;2023-09-19T06:48:07;98655.22;;;20.32;100.00
9289;BME280;4683;50.864;12.086;2023-09-19T06:50:41;98663.19;;;20.26;100.00
9289;BME280;4683;50.864;12.086;2023-09-19T06:53:13;98667.03;;;20.09;100.00
9289;BME280;4683;50.864;12.086;2023-09-19T06:55:41;98669.66;;;20.04;100.00
9289;BME280;4683;50.864;12.086;2023-09-19T06:58:13;98677.66;;;19.98;100.00
9289;BME280;4683;50.864;12.086;2023-09-19T07:00:46;98682.31;;;19.86;100.00
9289;BME280;4683;50.864;12.086;2023-09-19T07:03:14;98686.94;;;19.69;100.00
9289;BME280;4683;50.864;12.086;2023-09-19T07:05:48;98689.16;;;19.77;100.00
9289;BME280;4683;50.864;12.086;2023-09-19T07:08:18;98685.97;;;19.80;100.00
9289;BME280;4683;50.864;12.086;2023-09-19T07:10:51;98696.06;;;20.17;100.00
9289;BME280;4683;50.864;12.086;2023-09-19T07:13:22;98692.00;;;20.41;100.00
9289;BME280;4683;50.864;12.086;2023-09-19T07:15:55;98695.50;;;20.69;100.00
9289;BME280;4683;50.864;12.086;2023-09-19T07:18:26;98698.59;;;20.56;100.00
9289;BME280;4683;50.864;12.086;2023-09-19T07:20:58;98704.00;;;20.61;100.00
9289;BME280;4683;50.864;12.086;2023-09-19T07:23:32;98695.44;;;20.64;100.00
9289;BME280;4683;50.864;12.086;2023-09-19T07:26:05;98703.38;;;20.48;100.00
9289;BME280;4683;50.864;12.086;2023-09-19T07:28:37;98706.25;;;20.20;100.00
9289;BME280;4683;50.864;12.086;2023-09-19T07:31:09;98714.19;;;20.10;100.00
9289;BME280;4683;50.864;12.086;2023-09-19T07:33:40;98718.06;;;20.24;100.00
9289;BME280;4683;50.864;12.086;2023-09-19T07:36:16;98728.34;;;20.32;100.00
9289;BME280;4683;50.864;12.086;2023-09-19T07:38:47;98727.28;;;20.33;100.00
9289;BME280;4683;50.864;12.086;2023-09-19T07:41:16;98726.47;;;20.33;100.00
9289;BME280;4683;50.864;12.086;2023-09-19T07:43:45;98735.81;;;20.30;100.00
9289;BME280;4683;50.864;12.086;2023-09-19T07:46:15;98740.94;;;20.32;100.00
9289;BME280;4683;50.864;12.086;2023-09-19T07:48:43;98748.13;;;20.26;100.00
9289;BME280;4683;50.864;12.086;2023-09-19T07:51:15;98756.22;;;20.31;100.00
9289;BME280;4683;50.864;12.086;2023-09-19T07:53:45;98758.44;;;20.66;100.00
9289;BME280;4683;50.864;12.086;2023-09-19T07:56:20;98763.22;;;20.86;100.00
9289;BME280;4683;50.864;12.086;2023-09-19T07:58:49;98772.78;;;20.77;100.00
9289;BME280;4683;50.864;12.086;2023-09-19T08:01:20;98772.22;;;20.75;100.00
9289;BME280;4683;50.864;12.086;2023-09-19T08:03:51;98787.13;;;20.66;100.00
9289;BME280;4683;50.864;12.086;2023-09-19T08:06:39;98783.59;;;20.87;100.00
9289;BME280;4683;50.864;12.086;2023-09-19T08:09:07;98789.06;;;21.02;100.00
9289;BME280;4683;50.864;12.086;2023-09-19T08:11:38;98790.28;;;21.17;100.00
9289;BME280;4683;50.864;12.086;2023-09-19T08:14:07;98795.72;;;21.27;100.00
9289;BME280;4683;50.864;12.086;2023-09-19T08:16:39;98798.28;;;21.12;100.00
9289;BME280;4683;50.864;12.086;2023-09-19T08:19:10;98802.56;;;21.08;100.00
9289;BME280;4683;50.864;12.086;2023-09-19T08:21:41;98799.41;;;20.89;100.00
9289;BME280;4683;50.864;12.086;2023-09-19T08:24:16;98802.06;;;20.84;100.00
9289;BME280;4683;50.864;12.086;2023-09-19T08:26:45;98801.81;;;20.85;100.00
9289;BME280;4683;50.864;12.086;2023-09-19T08:29:14;98799.03;;;20.75;100.00
9289;BME280;4683;50.864;12.086;2023-09-19T08:31:49;98793.66;;;20.75;100.00
9289;BME280;4683;50.864;12.086;2023-09-19T08:34:18;98786.09;;;20.67;100.00
9289;BME280;4683;50.864;12.086;2023-09-19T08:36:50;98793.78;;;20.85;100.00
9289;BME280;4683;50.864;12.086;2023-09-19T08:39:19;98792.94;;;20.85;100.00
9289;BME280;4683;50.864;12.086;2023-09-19T08:41:48;98796.94;;;21.09;100.00
9289;BME280;4683;50.864;12.086;2023-09-19T08:44:17;98798.63;;;21.20;100.00
9289;BME280;4683;50.864;12.086;2023-09-19T08:46:48;98799.31;;;21.06;100.00
9289;BME280;4683;50.864;12.086;2023-09-19T08:49:28;98811.28;;;20.98;100.00
9289;BME280;4683;50.864;12.086;2023-09-19T08:52:08;98807.94;;;20.81;100.00
9289;BME280;4683;50.864;12.086;2023-09-19T08:54:40;98813.22;;;21.02;100.00
9289;BME280;4683;50.864;12.086;2023-09-19T08:57:11;98803.78;;;21.27;100.00
9289;BME280;4683;50.864;12.086;2023-09-19T08:59:49;98808.50;;;21.15;100.00
9289;BME280;4683;50.864;12.086;2023-09-19T09:02:21;98809.00;;;21.12;100.00
9289;BME280;4683;50.864;12.086;2023-09-19T09:04:52;98816.19;;;21.33;100.00
9289;BME280;4683;50.864;12.086;2023-09-19T09:07:22;98809.22;;;21.32;100.00
9289;BME280;4683;50.864;12.086;2023-09-19T09:09:53;98817.72;;;20.97;100.00
9289;BME280;4683;50.864;12.086;2023-09-19T09:12:24;98808.13;;;21.01;100.00
9289;BME280;4683;50.864;12.086;2023-09-19T09:14:53;98797.34;;;21.28;100.00
9289;BME280;4683;50.864;12.086;2023-09-19T09:17:23;98795.72;;;21.27;100.00
9289;BME280;4683;50.864;12.086;2023-09-19T09:19:54;98798.16;;;21.66;100.00
9289;BME280;4683;50.864;12.086;2023-09-19T09:22:23;98810.81;;;22.13;100.00
9289;BME280;4683;50.864;12.086;2023-09-19T09:24:53;98796.69;;;21.85;100.00
9289;BME280;4683;50.864;12.086;2023-09-19T09:27:24;98793.84;;;21.60;100.00
9289;BME280;4683;50.864;12.086;2023-09-19T09:29:58;98806.25;;;21.71;100.00
9289;BME280;4683;50.864;12.086;2023-09-19T09:32:30;98803.66;;;21.86;100.00
9289;BME280;4683;50.864;12.086;2023-09-19T09:35:06;98806.09;;;21.88;100.00
9289;BME280;4683;50.864;12.086;2023-09-19T09:37:36;98806.88;;;21.88;100.00
9289;BME280;4683;50.864;12.086;2023-09-19T09:40:09;98813.13;;;21.99;100.00
9289;BME280;4683;50.864;12.086;2023-09-19T09:42:51;98816.00;;;21.82;100.00
9289;BME280;4683;50.864;12.086;2023-09-19T09:45:25;98823.09;;;22.03;100.00
9289;BME280;4683;50.864;12.086;2023-09-19T09:48:06;98828.09;;;21.85;100.00
9289;BME280;4683;50.864;12.086;2023-09-19T09:50:48;98821.88;;;21.37;100.00
9289;BME280;4683;50.864;12.086;2023-09-19T09:53:24;98832.19;;;21.23;100.00
9289;BME280;4683;50.864;12.086;2023-09-19T09:56:02;98823.09;;;21.29;100.00
9289;BME280;4683;50.864;12.086;2023-09-19T09:58:35;98820.69;;;21.27;100.00
9289;BME280;4683;50.864;12.086;2023-09-19T10:01:13;98815.75;;;21.46;100.00
9289;BME280;4683;50.864;12.086;2023-09-19T10:03:46;98815.00;;;21.56;100.00
9289;BME280;4683;50.864;12.086;2023-09-19T10:06:17;98817.16;;;21.54;100.00
9289;BME280;4683;50.864;12.086;2023-09-19T10:09:02;98828.84;;;21.80;100.00
9289;BME280;4683;50.864;12.086;2023-09-19T10:11:43;98829.06;;;21.68;100.00
9289;BME280;4683;50.864;12.086;2023-09-19T10:14:13;98819.44;;;21.35;100.00
9289;BME280;4683;50.864;12.086;2023-09-19T10:16:47;98827.38;;;21.57;100.00
9289;BME280;4683;50.864;12.086;2023-09-19T10:19:27;98827.72;;;21.71;100.00
9289;BME280;4683;50.864;12.086;2023-09-19T10:22:04;98828.91;;;21.85;100.00
9289;BME280;4683;50.864;12.086;2023-09-19T10:24:36;98824.31;;;21.81;100.00
9289;BME280;4683;50.864;12.086;2023-09-19T10:27:07;98818.53;;;21.62;100.00
9289;BME280;4683;50.864;12.086;2023-09-19T10:29:39;98831.97;;;21.62;100.00
9289;BME280;4683;50.864;12.086;2023-09-19T10:32:10;98829.22;;;21.51;100.00
9289;BME280;4683;50.864;12.086;2023-09-19T10:34:47;98836.94;;;21.43;100.00
9289;BME280;4683;50.864;12.086;2023-09-19T10:37:19;98829.59;;;21.70;99.93
9289;BME280;4683;50.864;12.086;2023-09-19T10:39:57;98831.13;;;21.56;100.00
9289;BME280;4683;50.864;12.086;2023-09-19T10:42:27;98829.53;;;22.02;98.95
9289;BME280;4683;50.864;12.086;2023-09-19T10:45:00;98835.84;;;22.23;96.85
9289;BME280;4683;50.864;12.086;2023-09-19T10:47:35;98835.47;;;22.10;97.42
9289;BME280;4683;50.864;12.086;2023-09-19T10:50:07;98829.84;;;22.11;96.59
9289;BME280;4683;50.864;12.086;2023-09-19T10:52:41;98833.44;;;22.22;96.68
9289;BME280;4683;50.864;12.086;2023-09-19T10:55:16;98842.84;;;22.29;95.74
9289;BME280;4683;50.864;12.086;2023-09-19T10:57:47;98838.88;;;22.42;94.67
9289;BME280;4683;50.864;12.086;2023-09-19T11:00:17;98840.44;;;22.28;94.93
9289;BME280;4683;50.864;12.086;2023-09-19T11:03:19;98833.75;;;21.88;89.88
9289;BME280;4683;50.864;12.086;2023-09-19T11:06:11;98833.69;;;21.78;89.76
9289;BME280;4683;50.864;12.086;2023-09-19T11:08:59;98837.38;;;21.67;87.82
9289;BME280;4683;50.864;12.086;2023-09-19T11:11:50;98830.56;;;21.96;87.87
9289;BME280;4683;50.864;12.086;2023-09-19T11:14:37;98831.78;;;22.21;85.14
9289;BME280;4683;50.864;12.086;2023-09-19T11:17:40;98824.50;;;21.69;82.30
9289;BME280;4683;50.864;12.086;2023-09-19T11:20:24;98824.44;;;21.59;86.44
9289;BME280;4683;50.864;12.086;2023-09-19T11:23:23;98822.13;;;21.72;87.70
9289;BME280;4683;50.864;12.086;2023-09-19T11:25:54;98819.06;;;22.06;91.35
9289;BME280;4683;50.864;12.086;2023-09-19T11:28:34;98820.75;;;22.12;84.21
9289;BME280;4683;50.864;12.086;2023-09-19T11:31:48;98815.81;;;21.99;80.29
9289;BME280;4683;50.864;12.086;2023-09-19T11:34:47;98809.25;;;22.27;81.89
9289;BME280;4683;50.864;12.086;2023-09-19T11:37:59;98820.78;;;22.22;83.80
9289;BME280;4683;50.864;12.086;2023-09-19T11:40:45;98809.50;;;22.25;80.11
9289;BME280;4683;50.864;12.086;2023-09-19T11:43:32;98821.09;;;22.31;77.01
9289;BME280;4683;50.864;12.086;2023-09-19T11:46:08;98814.63;;;22.27;81.80
9289;BME280;4683;50.864;12.086;2023-09-19T11:48:40;98813.75;;;22.16;80.69
9289;BME280;4683;50.864;12.086;2023-09-19T11:51:17;98815.59;;;22.11;80.08
9289;BME280;4683;50.864;12.086;2023-09-19T11:54:04;98818.75;;;21.97;81.65
9289;BME280;4683;50.864;12.086;2023-09-19T11:56:40;98821.31;;;22.24;82.06
9289;BME280;4683;50.864;12.086;2023-09-19T11:59:10;98817.81;;;22.19;82.13
9289;BME280;4683;50.864;12.086;2023-09-19T12:01:50;98808.69;;;22.25;82.76
9289;BME280;4683;50.864;12.086;2023-09-19T12:04:34;98812.00;;;22.47;80.01
9289;BME280;4683;50.864;12.086;2023-09-19T12:07:06;98801.56;;;22.66;81.62
9289;BME280;4683;50.864;12.086;2023-09-19T12:09:41;98799.94;;;22.65;77.62
9289;BME280;4683;50.864;12.086;2023-09-19T12:12:23;98798.53;;;22.42;80.43
9289;BME280;4683;50.864;12.086;2023-09-19T12:15:06;98798.06;;;22.71;80.10
9289;BME280;4683;50.864;12.086;2023-09-19T12:17:48;98798.59;;;22.58;76.29
9289;BME280;4683;50.864;12.086;2023-09-19T12:20:18;98798.63;;;22.63;78.35
9289;BME280;4683;50.864;12.086;2023-09-19T12:22:49;98797.63;;;22.94;79.98
9289;BME280;4683;50.864;12.086;2023-09-19T12:25:18;98793.25;;;22.88;73.72
9289;BME280;4683;50.864;12.086;2023-09-19T12:27:50;98794.84;;;22.74;75.39
9289;BME280;4683;50.864;12.086;2023-09-19T12:30:26;98795.63;;;22.49;76.29
9289;BME280;4683;50.864;12.086;2023-09-19T12:33:03;98793.16;;;22.32;75.61
9289;BME280;4683;50.864;12.086;2023-09-19T12:35:48;98790.13;;;22.18;78.97
9289;BME280;4683;50.864;12.086;2023-09-19T12:38:25;98788.78;;;22.21;76.23
9289;BME280;4683;50.864;12.086;2023-09-19T12:40:56;98803.97;;;21.90;76.94
9289;BME280;4683;50.864;12.086;2023-09-19T12:43:29;98789.50;;;22.01;77.69
9289;BME280;4683;50.864;12.086;2023-09-19T12:46:00;98785.81;;;22.12;75.19
9289;BME280;4683;50.864;12.086;2023-09-19T12:48:35;98783.47;;;22.31;74.60
9289;BME280;4683;50.864;12.086;2023-09-19T12:51:08;98788.00;;;22.25;75.52
9289;BME280;4683;50.864;12.086;2023-09-19T12:53:41;98791.59;;;22.62;72.60
9289;BME280;4683;50.864;12.086;2023-09-19T12:56:14;98783.59;;;22.97;69.57
9289;BME280;4683;50.864;12.086;2023-09-19T12:58:57;98784.97;;;22.90;69.40
9289;BME280;4683;50.864;12.086;2023-09-19T13:01:29;98790.09;;;23.27;67.20
9289;BME280;4683;50.864;12.086;2023-09-19T13:04:17;98786.56;;;23.11;61.25
9289;BME280;4683;50.864;12.086;2023-09-19T13:06:54;98787.94;;;23.14;63.99
9289;BME280;4683;50.864;12.086;2023-09-19T13:09:26;98784.66;;;22.81;63.39
9289;BME280;4683;50.864;12.086;2023-09-19T13:12:01;98781.97;;;22.81;63.42
9289;BME280;4683;50.864;12.086;2023-09-19T13:14:32;98788.75;;;22.94;61.36
9289;BME280;4683;50.864;12.086;2023-09-19T13:17:08;98781.47;;;23.15;60.75
9289;BME280;4683;50.864;12.086;2023-09-19T13:19:44;98786.59;;;23.21;58.78
9289;BME280;4683;50.864;12.086;2023-09-19T13:22:39;98775.28;;;22.94;59.76
9289;BME280;4683;50.864;12.086;2023-09-19T13:25:10;98786.28;;;22.87;59.14
9289;BME280;4683;50.864;12.086;2023-09-19T13:27:42;98787.94;;;23.09;58.31
9289;BME280;4683;50.864;12.086;2023-09-19T13:30:14;98772.84;;;23.28;55.14
9289;BME280;4683;50.864;12.086;2023-09-19T13:32:45;98784.16;;;22.94;54.52
9289;BME280;4683;50.864;12.086;2023-09-19T13:35:14;98788.47;;;23.06;54.61
9289;BME280;4683;50.864;12.086;2023-09-19T13:37:44;98776.09;;;22.94;54.05
9289;BME280;4683;50.864;12.086;2023-09-19T13:40:19;98784.16;;;22.94;53.68
9289;BME280;4683;50.864;12.086;2023-09-19T13:42:47;98795.94;;;22.78;53.11
9289;BME280;4683;50.864;12.086;2023-09-19T13:45:25;98788.69;;;22.84;54.34
9289;BME280;4683;50.864;12.086;2023-09-19T13:47:58;98787.13;;;23.08;55.67
9289;BME280;4683;50.864;12.086;2023-09-19T13:50:28;98793.25;;;22.78;54.53